Phillipsville, California
Current Conditions -  °F | °C
As of 1:55 PM on Monday 22 Dec 2014 (Local Time) from KFOT Reporting Station
Overcast Overcast  
Wind Chill: 57°   Ceiling: 300
Heat Index: 57°   Visibility: 9mi
Dew Point: 57°   Wind: 12mph
Humidity: 100%   Direction: 300°WNW
Pressure: 30.32"   Gusts: NA
Location:  40.21°N, 123.78°W
Report Text: KFOT 222155Z AUTO 30010KT 9SM OVC003 14/14 A3032 RMK AO1
Loading
Personal Weather Stations






























Interactive Weather Map New forecast layout! Learn more

10-Day Weather Forecast

Advertisements
Track Severe Weather on mobile